Dalby, Iowa
Current Conditions -  °F | °C
As of 4:35 AM on Thursday 23 Oct 2014 (Local Time) from KPDC Reporting Station
Overcast Overcast  
Wind Chill: 51°   Ceiling: 4500
Heat Index: 51°   Visibility: 10mi
Dew Point: 38°   Wind: 9mph
Humidity: 63%   Direction: 120°ESE
Pressure: 30.11"   Gusts: NA
Location:  43.2691°N, 91.2611°W
Report Text: KPDC 230935Z AUTO 12008KT 10SM OVC045 10/04 A3011 RMK AO2 T01030035
Loading
Personal Weather Stations






























Interactive Weather Map
Tropical Storm Tracking
New forecast layout! Learn more

10-Day Weather Forecast

Advertisements
Track Severe Weather on mobile